createdAt,value
2023-02-18T00:02:30.209Z,99101.63
2023-02-18T00:05:15.900Z,99166.59
2023-02-18T00:09:05.088Z,99126.73
2023-02-18T00:13:03.556Z,99150.38
2023-02-18T00:16:37.157Z,99149.34
2023-02-18T00:19:54.736Z,99150.43
2023-02-18T00:23:29.392Z,99156.69
2023-02-18T00:26:15.030Z,99203.35
2023-02-18T00:29:21.187Z,99144.68
2023-02-18T00:32:44.474Z,99163.23
2023-02-18T00:35:44.546Z,99184.23
2023-02-18T00:39:13.167Z,99119.77
2023-02-18T00:41:57.257Z,99220.25
2023-02-18T00:45:17.312Z,99236.11
2023-02-18T00:47:49.220Z,99243.02
2023-02-18T00:50:26.768Z,99203.98
2023-02-18T00:53:18.064Z,99205.70
2023-02-18T00:56:29.861Z,99221.58
2023-02-18T01:00:14.228Z,99209.98
2023-02-18T01:03:37.067Z,99201.02
2023-02-18T01:06:32.814Z,99243.89
2023-02-18T01:09:31.410Z,99247.55
2023-02-18T01:13:15.346Z,99273.90
2023-02-18T01:16:13.589Z,99246.43
2023-02-18T01:19:16.341Z,99219.83
2023-02-18T01:22:15.843Z,99241.29
2023-02-18T01:25:25.544Z,99273.96
2023-02-18T01:28:40.176Z,99226.20
2023-02-18T01:59:43.192Z,99250.01
2023-02-18T02:02:52.616Z,99253.21
2023-02-18T02:06:04.786Z,99231.02
2023-02-18T02:09:10.253Z,99268.19
2023-02-18T02:12:20.959Z,99258.15
2023-02-18T02:15:55.924Z,99267.46
2023-02-18T02:19:10.527Z,99271.79
2023-02-18T02:21:52.832Z,99331.29
2023-02-18T02:25:07.585Z,99274.71
2023-02-18T02:28:04.486Z,99276.70
2023-02-18T02:31:57.068Z,99250.41
2023-02-18T02:34:47.594Z,99289.73
2023-02-18T02:38:01.216Z,99223.48
2023-02-18T02:41:01.943Z,99281.02
2023-02-18T02:43:40.037Z,99307.98
2023-02-18T02:46:52.553Z,99334.09
2023-02-18T02:50:22.168Z,99229.54
2023-02-18T02:53:35.887Z,99227.36
2023-02-18T02:56:28.416Z,99254.14
2023-02-18T03:00:12.693Z,99250.35
2023-02-18T03:03:40.769Z,99293.19
2023-02-18T03:07:19.794Z,99280.82
2023-02-18T03:11:05.408Z,99302.63
2023-02-18T03:14:37.049Z,99321.68
2023-02-18T03:17:39.407Z,99283.06
2023-02-18T03:20:46.911Z,99312.13
2023-02-18T03:24:10.609Z,99319.59
2023-02-18T03:27:42.694Z,99313.44
2023-02-18T03:30:46.901Z,99354.17
2023-02-18T03:34:02.910Z,99294.13
2023-02-18T03:36:39.078Z,99312.06
2023-02-18T03:39:29.504Z,99317.61
2023-02-18T03:42:00.642Z,99324.03
2023-02-18T03:45:02.732Z,99334.07
2023-02-18T03:48:05.512Z,99315.48
2023-02-18T03:51:19.686Z,99336.55
2023-02-18T03:54:14.621Z,99310.17
2023-02-18T03:57:43.844Z,99331.40
2023-02-18T04:00:15.104Z,99365.25
2023-02-18T04:03:10.951Z,99362.19
2023-02-18T04:05:58.364Z,99363.28
2023-02-18T04:08:30.026Z,99346.05
2023-02-18T04:11:31.047Z,99380.95
2023-02-18T04:14:53.501Z,99410.13
2023-02-18T04:18:40.287Z,99405.02
2023-02-18T04:21:26.780Z,99403.36
2023-02-18T04:24:46.189Z,99371.14
2023-02-18T04:28:04.856Z,99391.19
2023-02-18T04:31:19.045Z,99396.37
2023-02-18T04:34:30.825Z,99381.41
2023-02-18T04:37:32.383Z,99385.77
2023-02-18T04:40:37.288Z,99408.37
2023-02-18T04:43:19.532Z,99434.64
2023-02-18T04:46:08.817Z,99402.95
2023-02-18T04:49:03.434Z,99418.52
2023-02-18T04:52:21.493Z,99459.77
2023-02-18T04:55:07.548Z,99415.83
2023-02-18T04:58:00.134Z,99406.94
2023-02-18T05:00:54.808Z,99437.30
2023-02-18T05:03:48.257Z,99417.15
2023-02-18T05:06:28.890Z,99459.79
2023-02-18T05:09:41.879Z,99408.42
2023-02-18T05:12:24.844Z,99412.10
2023-02-18T05:15:24.343Z,99436.63
2023-02-18T05:18:04.674Z,99436.84
2023-02-18T05:20:57.529Z,99469.28
2023-02-18T05:23:37.458Z,99452.78
2023-02-18T05:26:32.803Z,99443.16
2023-02-18T05:29:13.337Z,99513.73
2023-02-18T05:31:52.679Z,99463.07
2023-02-18T05:34:58.546Z,99460.66
2023-02-18T05:38:13.101Z,99465.02
2023-02-18T05:41:11.531Z,99483.53
2023-02-18T05:44:13.167Z,99488.08
2023-02-18T05:46:44.879Z,99466.41
2023-02-18T06:03:14.562Z,99500.08
2023-02-18T06:05:48.007Z,99517.13
2023-02-18T06:08:35.055Z,99516.94
2023-02-18T06:11:25.114Z,99546.23
2023-02-18T06:14:03.132Z,99568.05
2023-02-18T06:16:59.817Z,99532.15
2023-02-18T06:20:18.434Z,99508.27
2023-02-18T06:23:05.482Z,99527.15
2023-02-18T06:26:27.099Z,99527.73
2023-02-18T06:29:40.884Z,99560.20
2023-02-18T06:32:30.989Z,99552.67
2023-02-18T06:35:11.592Z,99524.11
2023-02-18T06:38:13.554Z,99552.38
2023-02-18T06:41:04.758Z,99582.73
2023-02-18T06:43:45.079Z,99573.81
2023-02-18T06:46:18.883Z,99545.05
2023-02-18T06:48:59.491Z,99583.66
2023-02-18T06:51:47.175Z,99600.22
2023-02-18T06:54:53.202Z,99618.14
2023-02-18T06:57:59.274Z,99582.98
2023-02-18T07:00:57.716Z,99631.05
2023-02-18T07:03:50.256Z,99621.39
2023-02-18T07:06:56.909Z,99602.59
2023-02-18T07:09:37.039Z,99581.04
2023-02-18T07:12:25.984Z,99597.90
2023-02-18T07:15:03.999Z,99607.91
2023-02-18T07:18:09.463Z,99598.29
2023-02-18T07:21:27.180Z,99592.10
2023-02-18T07:24:36.289Z,99611.09
2023-02-18T07:27:40.320Z,99625.39
2023-02-18T07:30:17.669Z,99616.77
2023-02-18T07:33:14.220Z,99625.56
2023-02-18T07:37:23.671Z,99607.81
2023-02-18T07:40:28.087Z,99638.79
2023-02-18T07:44:20.448Z,99612.26
2023-02-18T07:47:03.857Z,99631.16
2023-02-18T07:49:52.706Z,99622.52
2023-02-18T07:53:07.964Z,99636.48
2023-02-18T07:55:50.389Z,99659.73
2023-02-18T07:58:51.003Z,99666.94
2023-02-18T08:01:25.335Z,99667.61
2023-02-18T08:04:04.890Z,99663.98
2023-02-18T08:06:49.899Z,99649.83
2023-02-18T08:09:26.813Z,99647.77
2023-02-18T08:12:05.378Z,99641.02
2023-02-18T08:15:27.607Z,99655.80
2023-02-18T08:18:08.094Z,99661.84
2023-02-18T08:21:06.877Z,99652.52
2023-02-18T08:24:19.995Z,99661.90
2023-02-18T08:27:00.948Z,99649.11
2023-02-18T08:29:47.789Z,99665.01
2023-02-18T08:32:19.325Z,99666.34
2023-02-18T08:35:11.091Z,99680.97
2023-02-18T08:38:06.857Z,99691.45
2023-02-18T08:41:09.502Z,99692.59
2023-02-18T08:44:12.518Z,99673.21
2023-02-18T08:48:18.158Z,99692.63
2023-02-18T08:50:26.628Z,99699.66
2023-02-18T08:53:52.195Z,99670.11
2023-02-18T08:57:15.832Z,99682.30
2023-02-18T09:00:42.796Z,99672.40
2023-02-18T09:03:41.672Z,99678.98
2023-02-18T09:07:00.934Z,99707.25
2023-02-18T09:09:44.796Z,99675.31
2023-02-18T09:12:42.866Z,99701.95
2023-02-18T09:15:23.142Z,99709.98
2023-02-18T09:18:27.916Z,99725.84
2023-02-18T09:21:09.506Z,99712.86
2023-02-18T09:23:56.112Z,99703.27
2023-02-18T09:26:47.662Z,99703.41
2023-02-18T09:29:20.540Z,99690.14
2023-02-18T09:32:34.452Z,99703.55
2023-02-18T09:35:39.404Z,99716.23
2023-02-18T09:38:40.373Z,99734.27
2023-02-18T09:41:19.911Z,99717.31
2023-02-18T09:44:11.647Z,99721.55
2023-02-18T09:47:35.662Z,99739.92
2023-02-18T09:50:29.421Z,99758.73
2023-02-18T09:53:08.485Z,99735.15
2023-02-18T09:55:50.984Z,99729.40
2023-02-18T09:58:44.502Z,99744.20
2023-02-18T10:01:28.083Z,99737.27
2023-02-18T10:04:55.642Z,99740.85
2023-02-18T10:08:25.626Z,99757.27
2023-02-18T10:11:32.297Z,99753.14
2023-02-18T10:14:36.073Z,99745.48
2023-02-18T10:17:40.427Z,99751.34
2023-02-18T10:20:43.649Z,99739.49
2023-02-18T10:23:48.476Z,99736.45
2023-02-18T10:27:41.542Z,99731.42
2023-02-18T10:31:42.996Z,99729.83
2023-02-18T10:35:37.885Z,99742.46
2023-02-18T10:39:17.888Z,99759.94
2023-02-18T10:42:53.285Z,99768.59
2023-02-18T10:46:16.612Z,99777.90
2023-02-18T10:49:56.100Z,99782.32
2023-02-18T10:53:58.476Z,99768.44
2023-02-18T10:57:41.964Z,99742.04
2023-02-18T11:01:25.514Z,99765.68
2023-02-18T11:05:00.706Z,99747.27
2023-02-18T11:08:03.530Z,99734.15
2023-02-18T11:11:34.408Z,99760.25
2023-02-18T11:15:36.166Z,99762.77
2023-02-18T11:19:07.207Z,99784.04
2023-02-18T11:22:28.288Z,99774.71
2023-02-18T11:26:13.634Z,99782.69
2023-02-18T11:29:41.576Z,99760.27
2023-02-18T11:32:19.224Z,99735.03
2023-02-18T11:35:11.163Z,99742.48
2023-02-18T11:37:53.538Z,99786.88
2023-02-18T11:40:31.765Z,99814.33
2023-02-18T11:43:33.654Z,99745.70
2023-02-18T11:46:23.984Z,99727.45
2023-02-18T11:49:41.805Z,99746.52
2023-02-18T11:53:11.060Z,99748.95
2023-02-18T11:56:06.492Z,99738.90
2023-02-18T11:59:07.990Z,99730.10
2023-02-18T12:02:43.414Z,99726.48
2023-02-18T12:05:46.188Z,99722.31
2023-02-18T12:09:06.412Z,99715.27
2023-02-18T12:11:51.177Z,99711.53
2023-02-18T12:14:48.590Z,99744.71
2023-02-18T12:18:16.376Z,99749.70
2023-02-18T12:21:22.943Z,99730.20
2023-02-18T12:24:06.508Z,99715.33
2023-02-18T12:27:17.156Z,99729.27
2023-02-18T12:30:32.821Z,99717.19
2023-02-18T12:34:10.397Z,99722.26
2023-02-18T12:37:53.055Z,99741.25
2023-02-18T12:41:31.330Z,99771.14
2023-02-18T12:44:50.532Z,99759.04
2023-02-18T12:48:37.969Z,99715.41
2023-02-18T12:51:38.346Z,99733.96
2023-02-18T12:54:51.219Z,99742.81
2023-02-18T12:58:22.578Z,99754.08
2023-02-18T13:01:43.821Z,99712.52
2023-02-18T13:04:41.251Z,99727.91
2023-02-18T13:08:13.371Z,99735.09
2023-02-18T13:11:57.128Z,99727.70
2023-02-18T13:15:22.571Z,99721.77
2023-02-18T13:18:47.892Z,99739.29
2023-02-18T13:21:40.698Z,99743.71
2023-02-18T13:24:45.268Z,99741.40
2023-02-18T13:27:50.339Z,99746.39
2023-02-18T13:30:57.472Z,99715.88
2023-02-18T13:34:04.994Z,99740.10
2023-02-18T13:37:38.855Z,99729.47
2023-02-18T13:40:36.840Z,99716.64
2023-02-18T13:43:48.086Z,99721.02
2023-02-18T13:47:09.059Z,99719.17
2023-02-18T13:49:52.517Z,99709.75
2023-02-18T13:52:37.221Z,99719.07
2023-02-18T13:55:46.472Z,99733.02
2023-02-18T13:58:56.733Z,99728.34
2023-02-18T14:01:59.344Z,99718.02
2023-02-18T14:05:47.579Z,99710.98
2023-02-18T14:09:30.916Z,99716.48
2023-02-18T14:13:03.301Z,99720.02
2023-02-18T14:16:08.865Z,99727.11
2023-02-18T14:19:41.132Z,99717.11
2023-02-18T14:23:39.632Z,99715.34
2023-02-18T14:26:36.998Z,99707.83
2023-02-18T14:29:31.198Z,99707.33
2023-02-18T14:32:24.262Z,99709.54
2023-02-18T14:35:27.781Z,99716.05
2023-02-18T14:38:51.701Z,99705.85
2023-02-18T14:42:04.169Z,99715.05
2023-02-18T14:45:14.486Z,99721.16
2023-02-18T14:49:21.953Z,99715.52
2023-02-18T14:52:08.739Z,99727.58
2023-02-18T14:54:56.528Z,99726.73
2023-02-18T14:58:00.305Z,99727.30
2023-02-18T15:01:06.600Z,99727.02
2023-02-18T15:04:50.959Z,99749.72
2023-02-18T15:08:56.924Z,99747.94
2023-02-18T15:12:55.287Z,99749.43
2023-02-18T15:16:09.002Z,99739.74
2023-02-18T15:19:31.219Z,99727.79
2023-02-18T15:22:04.741Z,99724.06
2023-02-18T15:24:54.728Z,99727.83
2023-02-18T15:27:49.785Z,99728.51
2023-02-18T15:31:05.015Z,99748.02
2023-02-18T15:33:56.424Z,99730.50
2023-02-18T15:37:25.580Z,99733.64
2023-02-18T15:40:54.625Z,99744.38
2023-02-18T15:43:35.763Z,99747.69
2023-02-18T15:46:43.254Z,99740.27
2023-02-18T15:50:00.203Z,99743.61
2023-02-18T15:53:39.230Z,99740.88
2023-02-18T15:56:41.421Z,99743.17
2023-02-18T16:00:13.262Z,99755.14
2023-02-18T16:03:54.120Z,99750.92
2023-02-18T16:07:02.939Z,99751.15
2023-02-18T16:10:44.367Z,99759.27
2023-02-18T16:14:08.483Z,99775.33
2023-02-18T16:17:11.435Z,99763.15
2023-02-18T16:20:33.750Z,99749.55
2023-02-18T16:24:11.926Z,99761.81
2023-02-18T16:27:40.264Z,99774.80
2023-02-18T16:30:53.176Z,99773.83
2023-02-18T16:34:07.753Z,99776.32
2023-02-18T16:37:47.998Z,99764.16
2023-02-18T16:41:05.801Z,99769.19
2023-02-18T16:45:15.269Z,99764.90
2023-02-18T16:48:59.965Z,99780.29
2023-02-18T16:52:37.388Z,99787.23
2023-02-18T16:56:09.338Z,99784.17
2023-02-18T16:59:36.089Z,99793.67
2023-02-18T17:03:07.218Z,99810.23
2023-02-18T17:06:54.735Z,99809.90
2023-02-18T17:10:39.669Z,99800.92
2023-02-18T17:14:14.422Z,99821.85
2023-02-18T17:18:05.065Z,99812.73
2023-02-18T17:21:51.051Z,99824.14
2023-02-18T17:25:42.349Z,99818.67
2023-02-18T17:29:13.834Z,99840.95
2023-02-18T17:33:03.453Z,99846.90
2023-02-18T17:36:47.847Z,99832.31
2023-02-18T17:39:57.493Z,99853.35
2023-02-18T17:43:25.828Z,99848.70
2023-02-18T17:47:25.221Z,99869.75
2023-02-18T17:51:13.732Z,99883.35
2023-02-18T17:54:57.971Z,99872.30
2023-02-18T17:58:49.399Z,99865.10
2023-02-18T18:02:21.613Z,99894.43
2023-02-18T18:05:58.957Z,99897.39
2023-02-18T18:09:31.279Z,99902.45
2023-02-18T18:13:32.887Z,99926.40
2023-02-18T18:17:03.430Z,99911.29
2023-02-18T18:20:51.773Z,99919.55
2023-02-18T18:24:34.131Z,99918.91
2023-02-18T18:28:37.537Z,99932.55
2023-02-18T18:32:37.328Z,99903.84
2023-02-18T18:36:20.839Z,99908.66
2023-02-18T18:39:52.612Z,99910.90
2023-02-18T18:44:04.845Z,99919.52
2023-02-18T18:47:57.033Z,99934.74
2023-02-18T18:51:17.914Z,99926.67
2023-02-18T18:54:41.790Z,99924.61
2023-02-18T18:58:22.855Z,99931.99
2023-02-18T19:02:21.082Z,99944.10
2023-02-18T19:05:58.412Z,99938.46
2023-02-18T19:09:36.971Z,99948.99
2023-02-18T19:12:45.460Z,99943.19
2023-02-18T19:16:43.285Z,99947.89
2023-02-18T19:20:08.074Z,99944.27
2023-02-18T19:23:43.957Z,99943.59
2023-02-18T19:27:17.321Z,99960.48
2023-02-18T19:30:25.963Z,99956.20
2023-02-18T19:34:02.660Z,99948.29
2023-02-18T19:37:37.945Z,99957.41
2023-02-18T19:41:32.996Z,99964.99
2023-02-18T19:45:00.018Z,99971.70
2023-02-18T19:48:29.390Z,99970.48
2023-02-18T19:52:05.667Z,99969.61
2023-02-18T19:55:14.169Z,99983.22
2023-02-18T19:58:36.959Z,99983.05
2023-02-18T20:01:27.511Z,99984.93
2023-02-18T20:05:06.565Z,99987.69
2023-02-18T20:08:41.209Z,100007.65
2023-02-18T20:12:19.848Z,100007.84
2023-02-18T20:15:43.860Z,100026.30
2023-02-18T20:19:01.158Z,100019.42
2023-02-18T20:22:51.637Z,100020.80
2023-02-18T20:26:24.216Z,100019.62
2023-02-18T20:29:46.592Z,100034.13
2023-02-18T20:33:39.990Z,100047.25
2023-02-18T20:37:30.053Z,100027.48
2023-02-18T20:40:49.652Z,100043.15
2023-02-18T20:44:03.405Z,100048.82
2023-02-18T20:47:39.852Z,100039.19
2023-02-18T20:51:06.534Z,100039.20
2023-02-18T20:54:20.272Z,100044.42
2023-02-18T20:57:32.497Z,100050.81
2023-02-18T21:01:37.796Z,100050.30
2023-02-18T21:05:05.453Z,100061.67
2023-02-18T21:09:05.706Z,100067.20
2023-02-18T21:12:50.962Z,100091.66
2023-02-18T21:16:25.140Z,100078.27
2023-02-18T21:20:24.908Z,100065.37
2023-02-18T21:23:54.747Z,100059.38
2023-02-18T21:27:44.345Z,100055.10
2023-02-18T21:31:56.553Z,100061.15
2023-02-18T21:35:31.494Z,100070.98
2023-02-18T21:39:21.013Z,100066.88
2023-02-18T21:42:57.537Z,100067.41
2023-02-18T21:47:10.003Z,100075.70
2023-02-18T21:50:44.548Z,100071.93
2023-02-18T21:54:54.028Z,100091.07
2023-02-18T21:58:50.717Z,100078.68
2023-02-18T22:02:38.889Z,100088.48
2023-02-18T22:06:21.225Z,100086.77
2023-02-18T22:09:53.838Z,100112.23
2023-02-18T22:13:30.044Z,100117.08
2023-02-18T22:16:35.117Z,100124.51
